createdAt,value
2018-06-22T00:00:54.757Z,10.10
2018-06-22T00:03:59.150Z,5.70
2018-06-22T00:07:03.510Z,8.97
2018-06-22T00:10:07.878Z,7.33
2018-06-22T00:13:12.284Z,6.47
2018-06-22T00:16:16.661Z,8.70
2018-06-22T00:19:21.044Z,4.17
2018-06-22T00:22:25.401Z,11.00
2018-06-22T00:25:29.793Z,4.63
2018-06-22T00:28:34.150Z,5.17
2018-06-22T00:31:38.524Z,7.87
2018-06-22T00:34:42.912Z,5.70
2018-06-22T00:37:47.315Z,7.43
2018-06-22T00:40:51.698Z,7.77
2018-06-22T00:43:56.088Z,7.83
2018-06-22T00:47:00.440Z,7.03
2018-06-22T00:50:04.813Z,12.37
2018-06-22T00:53:26.110Z,14.70
2018-06-22T00:56:30.536Z,10.07
2018-06-22T00:59:35.745Z,9.53
2018-06-22T01:02:40.109Z,9.63
2018-06-22T01:05:44.470Z,8.37
2018-06-22T01:08:48.833Z,7.63
2018-06-22T01:11:53.198Z,12.63
2018-06-22T01:14:57.556Z,6.77
2018-06-22T01:18:01.964Z,11.67
2018-06-22T01:21:06.337Z,14.77
2018-06-22T01:24:10.721Z,10.83
2018-06-22T01:27:15.132Z,5.43
2018-06-22T01:30:19.477Z,9.63
2018-06-22T01:33:23.909Z,10.27
2018-06-22T01:36:28.317Z,6.33
2018-06-22T01:39:32.789Z,4.20
2018-06-22T01:42:36.893Z,4.40
2018-06-22T01:45:41.321Z,3.73
2018-06-22T01:48:45.699Z,4.07
2018-06-22T01:51:50.105Z,5.20
2018-06-22T01:54:54.472Z,3.37
2018-06-22T01:57:58.877Z,3.67
2018-06-22T02:01:03.265Z,5.83
2018-06-22T02:04:07.662Z,8.33
2018-06-22T02:07:12.036Z,4.03
2018-06-22T02:10:16.427Z,4.20
2018-06-22T02:13:20.808Z,6.63
2018-06-22T02:16:25.205Z,6.70
2018-06-22T02:19:29.577Z,5.87
2018-06-22T02:22:33.985Z,9.80
2018-06-22T02:25:38.349Z,5.00
2018-06-22T02:28:42.744Z,5.83
2018-06-22T02:31:47.122Z,7.77
2018-06-22T02:34:51.497Z,6.83
2018-06-22T02:37:55.887Z,10.70
2018-06-22T02:41:04.498Z,7.57
2018-06-22T02:44:08.881Z,9.00
2018-06-22T02:47:13.282Z,9.30
2018-06-22T02:50:17.658Z,3.80
2018-06-22T02:53:22.057Z,6.70
2018-06-22T02:56:26.553Z,7.33
2018-06-22T02:59:30.981Z,6.90
2018-06-22T03:02:35.353Z,3.50
2018-06-22T03:05:39.781Z,5.33
2018-06-22T03:08:44.161Z,2.20
2018-06-22T03:11:48.554Z,3.03
2018-06-22T03:14:52.937Z,4.77
2018-06-22T03:17:57.367Z,4.23
2018-06-22T03:21:01.750Z,2.77
2018-06-22T03:24:06.212Z,3.17
2018-06-22T03:27:10.605Z,3.97
2018-06-22T03:30:14.960Z,2.13
2018-06-22T03:33:19.352Z,3.17
2018-06-22T03:36:23.725Z,3.97
2018-06-22T03:39:28.188Z,3.67
2018-06-22T03:42:32.509Z,2.70
2018-06-22T03:45:36.894Z,4.17
2018-06-22T03:48:41.252Z,4.33
2018-06-22T03:51:45.619Z,3.83
2018-06-22T03:54:49.998Z,8.50
2018-06-22T03:57:54.417Z,5.60
2018-06-22T04:00:58.774Z,8.17
2018-06-22T04:04:03.141Z,6.37
2018-06-22T04:07:07.517Z,5.50
2018-06-22T04:10:11.923Z,9.33
2018-06-22T04:13:16.264Z,11.60
2018-06-22T04:16:20.662Z,7.73
2018-06-22T04:19:25.037Z,13.27
2018-06-22T04:22:29.412Z,9.23
2018-06-22T04:25:33.758Z,8.53
2018-06-22T04:28:38.133Z,11.47
2018-06-22T04:31:42.583Z,14.47
2018-06-22T04:34:47.498Z,7.90
2018-06-22T04:41:13.518Z,7.87
2018-06-22T04:44:17.916Z,11.33
2018-06-22T04:47:22.306Z,14.00
2018-06-22T04:50:26.701Z,11.90
2018-06-22T04:53:31.093Z,11.27
2018-06-22T04:56:35.557Z,9.33
2018-06-22T04:59:39.941Z,13.23
2018-06-22T05:02:44.374Z,11.57
2018-06-22T05:05:48.693Z,11.27
2018-06-22T05:08:53.066Z,10.67
2018-06-22T05:11:57.469Z,13.50
2018-06-22T05:15:01.839Z,11.20
2018-06-22T05:18:06.325Z,12.33
2018-06-22T05:21:10.725Z,12.10
2018-06-22T05:24:15.109Z,11.23
2018-06-22T05:27:19.507Z,8.97
2018-06-22T05:30:24.092Z,12.30
2018-06-22T05:33:28.471Z,9.07
2018-06-22T05:36:32.856Z,9.77
2018-06-22T05:39:37.236Z,12.53
2018-06-22T05:42:41.589Z,11.97
2018-06-22T05:45:45.982Z,7.80
2018-06-22T05:48:50.367Z,11.03
2018-06-22T05:51:54.745Z,11.80
2018-06-22T05:54:59.097Z,10.90
2018-06-22T05:58:03.497Z,11.97
2018-06-22T06:01:07.910Z,15.73
2018-06-22T06:04:12.301Z,10.30
2018-06-22T06:07:16.672Z,9.90
2018-06-22T06:10:21.072Z,9.63
2018-06-22T06:13:25.414Z,16.57
2018-06-22T06:16:29.793Z,12.40
2018-06-22T06:19:34.144Z,10.43
2018-06-22T06:22:38.642Z,11.60
2018-06-22T06:25:43.029Z,10.13
2018-06-22T06:28:47.396Z,14.83
2018-06-22T06:31:51.772Z,13.73
2018-06-22T06:34:56.149Z,13.20
2018-06-22T06:38:00.525Z,16.40
2018-06-22T06:41:04.864Z,8.23
2018-06-22T06:44:09.228Z,9.70
2018-06-22T06:47:13.569Z,11.97
2018-06-22T06:50:17.936Z,10.33
2018-06-22T06:53:22.286Z,11.33
2018-06-22T06:56:26.657Z,12.47
2018-06-22T06:59:31.039Z,9.50
2018-06-22T07:02:35.450Z,10.27
2018-06-22T07:05:39.811Z,7.50
2018-06-22T07:08:44.157Z,12.20
2018-06-22T07:11:48.537Z,10.37
2018-06-22T07:14:52.902Z,15.63
2018-06-22T07:17:57.261Z,10.93
2018-06-22T07:21:01.649Z,7.30
2018-06-22T07:24:06.059Z,8.73
2018-06-22T07:27:10.429Z,8.87
2018-06-22T07:30:14.809Z,8.40
2018-06-22T07:33:19.208Z,10.70
2018-06-22T07:36:23.604Z,12.97
2018-06-22T07:39:27.978Z,9.07
2018-06-22T07:42:32.466Z,10.03
2018-06-22T07:45:36.842Z,9.07
2018-06-22T07:48:41.219Z,12.23
2018-06-22T07:51:45.589Z,6.83
2018-06-22T07:54:49.936Z,11.37
2018-06-22T07:57:54.389Z,10.83
2018-06-22T08:00:58.713Z,7.83
2018-06-22T08:04:03.139Z,11.83
2018-06-22T08:07:07.517Z,10.53
2018-06-22T08:10:11.889Z,12.70
2018-06-22T08:13:16.248Z,11.47
2018-06-22T08:16:20.633Z,8.63
2018-06-22T08:19:25.010Z,8.07
2018-06-22T08:22:29.437Z,9.57
2018-06-22T08:25:33.858Z,10.33
2018-06-22T08:28:38.261Z,10.37
2018-06-22T08:31:42.621Z,13.50
2018-06-22T08:34:47.126Z,9.97
2018-06-22T08:37:51.462Z,12.47
2018-06-22T08:40:55.852Z,10.87
2018-06-22T08:44:00.258Z,5.40
2018-06-22T08:47:04.637Z,8.87
2018-06-22T08:50:09.101Z,10.40
2018-06-22T08:53:13.481Z,11.60
2018-06-22T08:56:17.881Z,10.67
2018-06-22T08:59:22.273Z,8.73
2018-06-22T09:02:26.657Z,8.90
2018-06-22T09:05:31.065Z,18.93
2018-06-22T09:08:35.476Z,8.80
2018-06-22T09:11:39.888Z,9.73
2018-06-22T09:14:44.273Z,12.40
2018-06-22T09:17:48.667Z,10.27
2018-06-22T09:20:53.273Z,10.83
2018-06-22T09:23:57.965Z,11.40
2018-06-22T09:27:02.352Z,11.77
2018-06-22T09:30:06.762Z,11.17
2018-06-22T09:33:11.135Z,8.80
2018-06-22T09:36:15.531Z,8.20
2018-06-22T09:39:19.912Z,7.50
2018-06-22T09:42:24.331Z,16.47
2018-06-22T09:45:28.730Z,12.70
2018-06-22T09:48:33.206Z,11.93
2018-06-22T09:51:37.549Z,10.63
2018-06-22T09:54:42.602Z,10.73
2018-06-22T09:57:47.026Z,11.27
2018-06-22T10:00:52.764Z,13.07
2018-06-22T10:03:57.158Z,14.53
2018-06-22T10:07:01.531Z,12.10
2018-06-22T10:10:06.025Z,10.37
2018-06-22T10:13:10.407Z,11.63
2018-06-22T10:16:14.794Z,9.23
2018-06-22T10:19:19.166Z,13.33
2018-06-22T10:22:23.575Z,8.50
2018-06-22T10:25:28.110Z,12.30
2018-06-22T10:28:32.507Z,8.83
2018-06-22T10:31:37.246Z,6.87
2018-06-22T10:34:41.627Z,10.17
2018-06-22T10:37:46.265Z,15.60
2018-06-22T10:40:50.733Z,14.77
2018-06-22T10:43:56.194Z,11.67
2018-06-22T10:47:00.645Z,16.03
2018-06-22T10:50:06.213Z,11.33
2018-06-22T10:53:10.995Z,13.70
2018-06-22T10:56:15.508Z,13.87
2018-06-22T10:59:20.004Z,12.40
2018-06-22T11:02:24.397Z,12.23
2018-06-22T11:05:28.821Z,13.93
2018-06-22T11:08:33.180Z,13.87
2018-06-22T11:11:37.589Z,9.57
2018-06-22T11:14:42.309Z,9.10
2018-06-22T11:17:46.819Z,11.20
2018-06-22T11:20:52.261Z,10.43
2018-06-22T11:23:56.796Z,10.97
2018-06-22T11:27:02.658Z,9.60
2018-06-22T11:30:07.230Z,16.07
2018-06-22T11:33:13.595Z,11.00
2018-06-22T11:36:18.388Z,13.20
2018-06-22T11:39:22.789Z,10.40
2018-06-22T11:42:34.559Z,12.80
2018-06-22T11:45:39.313Z,15.13
2018-06-22T11:48:43.728Z,13.53
2018-06-22T11:51:48.485Z,14.93
2018-06-22T11:54:52.913Z,11.97
2018-06-22T11:57:58.090Z,8.43
2018-06-22T12:01:02.519Z,8.53
2018-06-22T12:04:07.109Z,12.47
2018-06-22T12:07:12.781Z,11.53
2018-06-22T12:10:19.120Z,9.77
2018-06-22T12:13:28.448Z,7.57
2018-06-22T12:16:32.890Z,11.83
2018-06-22T12:19:37.265Z,13.40
2018-06-22T12:22:41.641Z,12.20
2018-06-22T12:25:46.032Z,10.33
2018-06-22T12:28:50.401Z,11.60
2018-06-22T12:31:54.881Z,7.90
2018-06-22T12:34:59.265Z,11.40
2018-06-22T12:38:03.777Z,11.23
2018-06-22T12:41:08.146Z,10.47
2018-06-22T12:44:12.652Z,8.67
2018-06-22T12:47:17.046Z,11.93
2018-06-22T12:50:21.449Z,10.17
2018-06-22T12:53:25.842Z,13.23
2018-06-22T12:56:30.222Z,11.73
2018-06-22T12:59:34.741Z,12.60
2018-06-22T13:02:39.106Z,14.07
2018-06-22T13:05:43.529Z,14.07
2018-06-22T13:08:47.909Z,16.00
2018-06-22T13:11:52.305Z,14.00
2018-06-22T13:14:56.669Z,15.03
2018-06-22T13:18:01.053Z,12.67
2018-06-22T13:21:05.425Z,8.17
2018-06-22T13:24:09.822Z,14.17
2018-06-22T13:27:14.205Z,12.60
2018-06-22T13:30:18.628Z,10.83
2018-06-22T13:33:23.041Z,20.20
2018-06-22T13:36:27.450Z,19.40
2018-06-22T13:39:31.830Z,22.47
2018-06-22T13:42:36.248Z,11.87
2018-06-22T13:45:40.661Z,11.73
2018-06-22T13:48:45.166Z,13.27
2018-06-22T13:51:49.565Z,20.87
2018-06-22T13:54:53.964Z,14.27
2018-06-22T13:57:58.394Z,11.63
2018-06-22T14:01:02.817Z,11.20
2018-06-22T14:06:19.833Z,11.93
2018-06-22T14:09:24.224Z,16.27
2018-06-22T14:12:28.634Z,13.83
2018-06-22T14:15:33.052Z,12.37
2018-06-22T14:18:37.432Z,13.70
2018-06-22T14:21:41.845Z,10.23
2018-06-22T14:24:46.293Z,14.83
2018-06-22T14:27:50.706Z,14.50
2018-06-22T14:30:55.171Z,17.83
2018-06-22T14:33:59.594Z,13.73
2018-06-22T14:37:04.077Z,17.70
2018-06-22T14:40:08.572Z,16.80
2018-06-22T14:43:12.957Z,16.83
2018-06-22T14:46:17.356Z,16.33
2018-06-22T14:49:21.757Z,18.37
2018-06-22T14:52:26.156Z,13.83
2018-06-22T14:55:35.919Z,14.13
2018-06-22T14:58:45.438Z,18.00
2018-06-22T15:01:55.058Z,18.60
2018-06-22T15:05:04.515Z,16.20
2018-06-22T15:08:11.217Z,17.40
2018-06-22T15:11:15.632Z,15.03
2018-06-22T15:14:20.005Z,11.40
2018-06-22T15:17:24.389Z,15.13
2018-06-22T15:20:28.793Z,17.10
2018-06-22T15:23:33.174Z,15.87
2018-06-22T15:26:37.591Z,16.07
2018-06-22T15:29:42.010Z,12.63
2018-06-22T15:32:46.433Z,12.40
2018-06-22T15:35:55.990Z,11.93
2018-06-22T15:39:05.725Z,14.23
2018-06-22T15:42:15.201Z,11.07
2018-06-22T15:45:24.835Z,18.30
2018-06-22T15:48:34.369Z,13.70
2018-06-22T15:51:43.934Z,12.70
2018-06-22T15:54:53.372Z,12.50
2018-06-22T15:57:57.789Z,15.00
2018-06-22T16:01:06.271Z,20.47
2018-06-22T16:04:12.881Z,13.90
2018-06-22T16:07:20.184Z,14.53
2018-06-22T16:10:24.853Z,11.37
2018-06-22T16:13:29.294Z,13.20
2018-06-22T16:16:38.818Z,17.80
2018-06-22T16:19:48.710Z,14.43
2018-06-22T16:22:58.305Z,13.53
2018-06-22T16:28:10.777Z,16.40
2018-06-22T16:31:15.245Z,14.53
2018-06-22T16:34:20.034Z,8.90
2018-06-22T16:37:24.470Z,15.00
2018-06-22T16:40:29.993Z,9.77
2018-06-22T16:43:34.422Z,9.93
2018-06-22T16:46:39.110Z,9.00
2018-06-22T16:49:43.533Z,11.70
2018-06-22T16:52:48.094Z,10.03
2018-06-22T16:55:53.875Z,13.90
2018-06-22T16:59:02.447Z,11.30
2018-06-22T17:02:06.913Z,10.90
2018-06-22T17:05:11.417Z,15.17
2018-06-22T17:08:21.042Z,11.80
2018-06-22T17:11:30.748Z,6.93
2018-06-22T17:14:40.357Z,9.47
2018-06-22T17:17:49.934Z,9.80
2018-06-22T17:20:54.328Z,11.13
2018-06-22T17:23:58.816Z,16.10
2018-06-22T17:27:03.209Z,11.87
2018-06-22T17:30:07.717Z,9.07
2018-06-22T17:33:12.141Z,8.83
2018-06-22T17:36:16.489Z,11.90
2018-06-22T17:39:20.877Z,14.17
2018-06-22T17:42:25.329Z,10.00
2018-06-22T17:45:29.732Z,10.03
2018-06-22T17:48:34.137Z,8.60
2018-06-22T17:51:38.574Z,10.37
2018-06-22T17:54:42.963Z,12.53
2018-06-22T17:57:47.426Z,13.23
2018-06-22T18:00:57.149Z,8.97
2018-06-22T18:05:06.339Z,18.00
2018-06-22T18:08:15.858Z,13.30
2018-06-22T18:11:25.545Z,13.50
2018-06-22T18:14:29.933Z,14.70
2018-06-22T18:17:34.353Z,18.13
2018-06-22T18:20:38.745Z,12.80
2018-06-22T18:23:43.186Z,15.27
2018-06-22T18:26:47.621Z,16.17
2018-06-22T18:29:52.045Z,16.43
2018-06-22T18:32:56.450Z,23.33
2018-06-22T18:36:00.861Z,20.97
2018-06-22T18:39:10.996Z,23.10
2018-06-22T18:42:15.404Z,20.63
2018-06-22T18:45:19.866Z,19.40
2018-06-22T18:48:24.292Z,25.73
2018-06-22T18:51:28.702Z,26.67
2018-06-22T18:54:38.405Z,29.20
2018-06-22T18:57:47.963Z,28.70
2018-06-22T19:00:57.572Z,21.90
2018-06-22T19:04:02.040Z,29.67
2018-06-22T19:07:06.536Z,30.50
2018-06-22T19:10:10.922Z,17.07
2018-06-22T19:13:15.313Z,25.73
2018-06-22T19:16:19.733Z,26.70
2018-06-22T19:19:24.154Z,17.93
2018-06-22T19:22:28.561Z,19.60
2018-06-22T19:25:32.979Z,24.47
2018-06-22T19:28:37.344Z,28.33
2018-06-22T19:31:41.738Z,30.07
2018-06-22T19:34:51.112Z,22.40
2018-06-22T19:37:55.489Z,32.50
2018-06-22T19:40:59.917Z,29.43
2018-06-22T19:44:09.657Z,32.30
2018-06-22T19:47:19.138Z,27.57
2018-06-22T19:50:28.678Z,31.97
2018-06-22T19:53:38.089Z,27.17
2018-06-22T19:56:42.480Z,30.07
2018-06-22T19:59:46.865Z,31.50
2018-06-22T20:02:51.258Z,30.63
2018-06-22T20:05:55.645Z,31.23
2018-06-22T20:09:00.073Z,24.00
2018-06-22T20:12:04.481Z,23.73
2018-06-22T20:15:08.873Z,18.97
2018-06-22T20:18:13.282Z,29.67
2018-06-22T20:21:17.856Z,26.80
2018-06-22T20:24:27.472Z,29.90
2018-06-22T20:27:31.859Z,26.83
2018-06-22T20:30:36.222Z,33.73
2018-06-22T20:33:40.641Z,29.00
2018-06-22T20:36:50.291Z,27.47
2018-06-22T20:39:59.952Z,31.17
2018-06-22T20:45:14.877Z,29.57
2018-06-22T20:48:24.608Z,23.73
2018-06-22T20:51:33.094Z,23.80
2018-06-22T20:54:37.560Z,20.50
2018-06-22T20:57:42.037Z,26.77
2018-06-22T21:00:46.445Z,14.47
2018-06-22T21:03:50.857Z,25.70
2018-06-22T21:06:55.410Z,24.60
2018-06-22T21:10:00.110Z,28.27
2018-06-22T21:13:04.620Z,27.20
2018-06-22T21:16:09.055Z,19.83
2018-06-22T21:19:13.479Z,27.63
2018-06-22T21:22:18.026Z,25.83
2018-06-22T21:25:22.474Z,29.97
2018-06-22T21:28:32.195Z,22.73
2018-06-22T21:31:41.758Z,20.47
2018-06-22T21:34:51.351Z,30.70
2018-06-22T21:38:00.995Z,23.33
2018-06-22T21:41:05.425Z,25.03
2018-06-22T21:44:09.839Z,28.50
2018-06-22T21:47:14.416Z,22.77
2018-06-22T21:50:18.888Z,26.57
2018-06-22T21:53:23.316Z,21.30
2018-06-22T21:56:27.711Z,25.70
2018-06-22T21:59:31.975Z,21.70
2018-06-22T22:02:36.425Z,31.33
2018-06-22T22:05:40.890Z,27.47
2018-06-22T22:08:45.257Z,29.10
2018-06-22T22:11:53.748Z,28.80
2018-06-22T22:14:58.230Z,27.37
2018-06-22T22:18:02.717Z,26.40
2018-06-22T22:21:07.666Z,32.97
2018-06-22T22:24:12.069Z,31.63
2018-06-22T22:27:16.577Z,26.23
2018-06-22T22:30:21.125Z,19.30
2018-06-22T22:33:25.553Z,27.67
2018-06-22T22:36:30.088Z,26.00
2018-06-22T22:39:34.512Z,27.10
2018-06-22T22:42:38.939Z,29.47
2018-06-22T22:45:43.398Z,30.30
2018-06-22T22:48:47.818Z,26.63
2018-06-22T22:51:52.313Z,29.43
2018-06-22T22:54:56.748Z,24.50
2018-06-22T22:58:01.214Z,21.20
2018-06-22T23:01:05.647Z,25.97
2018-06-22T23:04:10.089Z,27.67
2018-06-22T23:07:14.532Z,23.23
2018-06-22T23:10:19.418Z,23.00
2018-06-22T23:13:24.286Z,20.43
2018-06-22T23:16:28.789Z,25.87
2018-06-22T23:19:33.353Z,28.03
2018-06-22T23:22:54.889Z,25.60
2018-06-22T23:25:59.486Z,20.83
2018-06-22T23:29:04.127Z,25.03
2018-06-22T23:32:08.531Z,23.97
2018-06-22T23:35:12.990Z,21.20
2018-06-22T23:38:17.448Z,26.90
2018-06-22T23:41:21.934Z,19.40
2018-06-22T23:44:26.354Z,18.43
2018-06-22T23:47:30.761Z,17.17
2018-06-22T23:50:35.256Z,20.33
2018-06-22T23:53:39.658Z,15.53
2018-06-22T23:56:44.026Z,14.03
2018-06-22T23:59:48.507Z,15.70
